Logo
Newest Metar:
CYXE 221600Z 12004KT 110V220 15SM -RA SCT025 OVC040 01/M01 A2947 RMK SF3SC5 SLP006

Last 10 Metars:
CYXE 221511Z 15004KT 12SM -RA SCT025 BKN050 BKN090 OVC140 01/M01 A2948 RMK SF3SC2AC2AS1 SLP009
CYXE 221500Z 12005KT 15SM SCT090 OVC140 00/M01 A2948 RMK AC3AS5 SLP010
CYXE 221400Z 14006KT 15SM SCT140 OVC200 M01/M03 A2951 RMK AC3CI5 SLP020
CYXE 221300Z 15006KT 15SM BKN220 M02/M04 A2954 RMK CI6 SLP029
CYXE 221200Z 17004KT 15SM FEW300 M03/M04 A2958 RMK CI2 SLP041
CYXE 221100Z 18005KT 15SM FEW300 M03/M04 A2958 RMK CI2 SLP042
CYXE 221000Z 17005KT 15SM FEW300 M04/M05 A2961 RMK CI2 SLP052
CYXE 220900Z 22006KT 15SM SKC M02/M03 A2964 RMK SLP060
CYXE 220800Z 21004KT 15SM SKC M02/M03 A2964 RMK SLP064
CYXE 220700Z 22005KT 15SM SKC M03/M04 A2966 RMK SLP069

Click here for Regina (YQR) International Weather